createdAt,value
2018-12-30T00:02:08.526Z,2.47
2018-12-30T00:04:25.115Z,2.63
2018-12-30T00:06:41.180Z,3.17
2018-12-30T00:08:57.985Z,3.00
2018-12-30T00:11:13.840Z,2.73
2018-12-30T00:13:30.592Z,3.20
2018-12-30T00:15:46.163Z,2.63
2018-12-30T00:18:02.809Z,3.10
2018-12-30T00:20:19.154Z,2.37
2018-12-30T00:22:35.135Z,1.70
2018-12-30T00:24:50.815Z,2.00
2018-12-30T00:27:07.111Z,2.03
2018-12-30T00:29:23.739Z,1.80
2018-12-30T00:31:40.403Z,1.90
2018-12-30T00:33:56.835Z,1.80
2018-12-30T00:36:12.928Z,2.30
2018-12-30T00:38:28.686Z,2.30
2018-12-30T00:40:44.724Z,2.37
2018-12-30T00:43:01.687Z,2.20
2018-12-30T00:45:18.219Z,1.85
2018-12-30T00:47:34.510Z,2.40
2018-12-30T00:49:50.721Z,2.93
2018-12-30T00:52:06.633Z,2.00
2018-12-30T00:54:23.060Z,1.70
2018-12-30T00:56:40.152Z,2.50
2018-12-30T00:58:56.236Z,1.70
2018-12-30T01:01:12.737Z,1.70
2018-12-30T01:03:29.712Z,2.00
2018-12-30T01:05:45.505Z,2.20
2018-12-30T01:08:02.080Z,1.90
2018-12-30T01:10:18.403Z,2.00
2018-12-30T01:12:35.083Z,2.00
2018-12-30T01:14:51.175Z,1.70
2018-12-30T01:17:06.903Z,1.87
2018-12-30T01:19:23.412Z,1.80
2018-12-30T01:21:40.365Z,1.60
2018-12-30T01:23:56.303Z,1.20
2018-12-30T01:26:12.614Z,1.50
2018-12-30T01:28:29.330Z,2.20
2018-12-30T01:30:45.907Z,2.10
2018-12-30T01:33:02.841Z,1.80
2018-12-30T01:35:18.720Z,2.02
2018-12-30T01:37:35.412Z,1.50
2018-12-30T01:39:51.383Z,1.40
2018-12-30T01:42:07.827Z,1.80
2018-12-30T01:44:24.803Z,1.40
2018-12-30T01:46:40.923Z,1.20
2018-12-30T01:48:56.702Z,1.10
2018-12-30T01:51:13.667Z,1.30
2018-12-30T01:53:30.031Z,1.10
2018-12-30T01:55:46.035Z,1.20
2018-12-30T01:58:01.992Z,1.20
2018-12-30T02:00:18.677Z,1.22
2018-12-30T02:02:34.740Z,1.00
2018-12-30T02:04:50.727Z,1.30
2018-12-30T02:07:06.811Z,1.20
2018-12-30T02:09:23.182Z,1.00
2018-12-30T02:11:39.371Z,1.30
2018-12-30T02:13:55.475Z,2.00
2018-12-30T02:16:11.675Z,1.70
2018-12-30T02:18:27.744Z,1.40
2018-12-30T02:20:44.210Z,1.57
2018-12-30T02:23:00.663Z,1.65
2018-12-30T02:25:16.396Z,1.40
2018-12-30T02:27:33.335Z,1.20
2018-12-30T02:29:49.811Z,1.17
2018-12-30T02:32:05.911Z,0.98
2018-12-30T02:34:22.109Z,0.90
2018-12-30T02:36:38.695Z,0.90
2018-12-30T02:38:54.515Z,0.83
2018-12-30T02:41:10.468Z,1.20
2018-12-30T02:43:27.299Z,1.40
2018-12-30T02:45:43.507Z,1.27
2018-12-30T02:48:00.503Z,1.20
2018-12-30T02:50:16.583Z,1.50
2018-12-30T02:52:32.413Z,1.10
2018-12-30T02:54:48.550Z,1.00
2018-12-30T02:57:04.646Z,1.10
2018-12-30T02:59:20.728Z,1.10
2018-12-30T03:01:37.404Z,0.90
2018-12-30T03:03:53.288Z,1.57
2018-12-30T03:06:10.128Z,1.20
2018-12-30T03:08:26.522Z,1.00
2018-12-30T03:10:43.617Z,1.50
2018-12-30T03:13:00.228Z,1.42
2018-12-30T03:15:16.249Z,1.70
2018-12-30T03:17:33.218Z,1.90
2018-12-30T03:19:48.976Z,1.40
2018-12-30T03:22:04.907Z,1.40
2018-12-30T03:24:20.966Z,1.60
2018-12-30T03:26:36.578Z,1.40
2018-12-30T03:28:52.981Z,1.20
2018-12-30T03:31:09.168Z,1.50
2018-12-30T03:33:25.319Z,1.50
2018-12-30T03:35:41.967Z,1.60
2018-12-30T03:37:58.684Z,1.77
2018-12-30T03:40:15.299Z,1.93
2018-12-30T03:42:31.727Z,1.50
2018-12-30T03:44:47.738Z,1.57
2018-12-30T03:47:03.807Z,1.80
2018-12-30T03:49:20.601Z,1.90
2018-12-30T03:51:36.696Z,1.40
2018-12-30T03:53:51.668Z,1.80
2018-12-30T03:58:44.303Z,2.10
2018-12-30T04:01:07.754Z,2.70
2018-12-30T04:03:31.291Z,1.90
2018-12-30T04:05:54.888Z,2.60
2018-12-30T04:08:18.643Z,2.30
2018-12-30T04:10:42.143Z,3.58
2018-12-30T04:13:05.727Z,2.73
2018-12-30T04:15:29.380Z,3.10
2018-12-30T04:17:53.248Z,3.40
2018-12-30T04:20:17.326Z,2.80
2018-12-30T04:22:40.752Z,2.72
2018-12-30T04:25:04.314Z,3.50
2018-12-30T04:30:12.131Z,3.50
2018-12-30T04:32:35.560Z,2.75
2018-12-30T04:35:00.561Z,3.10
2018-12-30T04:39:53.307Z,3.97
2018-12-30T04:42:16.784Z,3.10
2018-12-30T04:44:33.480Z,2.67
2018-12-30T04:46:49.553Z,3.30
2018-12-30T04:49:05.807Z,2.87
2018-12-30T04:51:22.343Z,3.02
2018-12-30T04:53:38.561Z,3.03
2018-12-30T04:55:55.002Z,2.60
2018-12-30T04:58:11.135Z,2.40
2018-12-30T05:00:27.029Z,2.90
2018-12-30T05:05:01.551Z,2.62
2018-12-30T05:07:18.316Z,2.10
2018-12-30T05:09:34.107Z,2.00
2018-12-30T05:11:50.339Z,2.50
2018-12-30T05:14:06.509Z,2.70
2018-12-30T05:16:22.909Z,2.00
2018-12-30T05:18:38.795Z,2.10
2018-12-30T05:20:54.370Z,2.33
2018-12-30T05:23:10.219Z,2.03
2018-12-30T05:25:26.355Z,2.40
2018-12-30T05:27:42.010Z,2.27
2018-12-30T05:29:58.173Z,2.00
2018-12-30T05:32:14.313Z,1.95
2018-12-30T05:34:31.075Z,2.22
2018-12-30T05:36:47.004Z,1.72
2018-12-30T05:39:04.583Z,1.60
2018-12-30T05:41:20.737Z,2.87
2018-12-30T05:43:37.360Z,1.70
2018-12-30T05:45:53.042Z,1.37
2018-12-30T05:48:08.809Z,1.70
2018-12-30T05:50:25.147Z,1.85
2018-12-30T05:52:41.987Z,2.00
2018-12-30T05:54:58.730Z,2.00
2018-12-30T05:57:15.096Z,1.43
2018-12-30T05:59:30.645Z,1.60
2018-12-30T06:01:46.404Z,1.67
2018-12-30T06:04:02.318Z,1.60
2018-12-30T06:06:18.256Z,1.90
2018-12-30T06:08:35.039Z,2.40
2018-12-30T06:10:51.455Z,1.60
2018-12-30T06:13:07.979Z,2.20
2018-12-30T06:15:24.691Z,2.33
2018-12-30T06:17:41.572Z,1.77
2018-12-30T06:19:57.568Z,2.22
2018-12-30T06:22:14.235Z,3.20
2018-12-30T06:24:30.117Z,2.70
2018-12-30T06:26:46.845Z,1.50
2018-12-30T06:29:02.586Z,2.17
2018-12-30T06:31:18.408Z,2.27
2018-12-30T06:33:34.106Z,2.30
2018-12-30T06:35:50.608Z,2.20
2018-12-30T06:38:06.944Z,2.40
2018-12-30T06:40:23.299Z,2.90
2018-12-30T06:42:39.807Z,2.50
2018-12-30T06:44:56.625Z,2.80
2018-12-30T06:47:12.256Z,1.90
2018-12-30T06:49:28.897Z,3.02
2018-12-30T06:51:33.452Z,1.87
2018-12-30T06:53:37.630Z,2.22
2018-12-30T06:55:42.155Z,1.63
2018-12-30T06:57:47.116Z,1.70
2018-12-30T06:59:51.467Z,1.50
2018-12-30T07:01:55.539Z,1.97
2018-12-30T07:03:59.683Z,2.03
2018-12-30T07:06:05.013Z,1.80
2018-12-30T07:08:10.126Z,1.37
2018-12-30T07:10:14.058Z,1.80
2018-12-30T07:12:18.705Z,1.70
2018-12-30T07:14:22.931Z,1.90
2018-12-30T07:16:28.387Z,1.67
2018-12-30T07:18:32.710Z,2.10
2018-12-30T07:20:37.155Z,1.70
2018-12-30T07:22:41.743Z,1.67
2018-12-30T07:24:45.823Z,1.73
2018-12-30T07:26:49.933Z,1.30
2018-12-30T07:28:54.603Z,1.50
2018-12-30T07:30:59.190Z,1.33
2018-12-30T07:33:04.419Z,1.83
2018-12-30T07:35:09.326Z,1.60
2018-12-30T07:37:14.126Z,1.50
2018-12-30T07:39:18.751Z,1.50
2018-12-30T07:41:22.950Z,2.00
2018-12-30T07:43:27.141Z,1.47
2018-12-30T07:45:31.290Z,1.77
2018-12-30T07:47:36.245Z,1.90
2018-12-30T07:49:40.375Z,2.20
2018-12-30T07:51:44.253Z,1.40
2018-12-30T07:53:48.800Z,1.60
2018-12-30T07:55:53.671Z,1.60
2018-12-30T07:57:57.555Z,1.80
2018-12-30T08:00:02.155Z,1.83
2018-12-30T08:02:06.756Z,2.05
2018-12-30T08:04:11.342Z,1.73
2018-12-30T08:06:15.614Z,2.20
2018-12-30T08:08:20.886Z,2.07
2018-12-30T08:10:25.374Z,2.20
2018-12-30T08:12:29.329Z,1.70
2018-12-30T08:14:33.773Z,2.30
2018-12-30T08:16:38.867Z,1.92
2018-12-30T08:18:43.820Z,2.87
2018-12-30T08:20:48.226Z,2.20
2018-12-30T08:22:52.718Z,2.40
2018-12-30T08:24:56.863Z,1.90
2018-12-30T08:27:01.968Z,2.50
2018-12-30T08:29:06.571Z,2.00
2018-12-30T08:31:11.394Z,2.17
2018-12-30T08:33:16.117Z,2.10
2018-12-30T08:35:21.168Z,2.13
2018-12-30T08:37:25.770Z,2.30
2018-12-30T08:39:30.314Z,2.00
2018-12-30T08:41:35.287Z,2.33
2018-12-30T08:43:39.759Z,1.82
2018-12-30T08:45:44.427Z,1.90
2018-12-30T08:47:49.703Z,2.35
2018-12-30T08:49:54.171Z,1.80
2018-12-30T08:51:58.791Z,2.60
2018-12-30T08:54:03.579Z,2.40
2018-12-30T08:56:07.900Z,2.10
2018-12-30T08:58:13.131Z,2.58
2018-12-30T09:00:17.619Z,2.50
2018-12-30T09:02:22.579Z,2.53
2018-12-30T09:04:26.792Z,1.83
2018-12-30T09:06:31.504Z,2.30
2018-12-30T09:08:36.192Z,2.77
2018-12-30T09:10:40.565Z,2.40
2018-12-30T09:12:44.841Z,2.50
2018-12-30T09:14:49.115Z,2.12
2018-12-30T09:16:53.623Z,2.03
2018-12-30T09:18:58.241Z,2.10
2018-12-30T09:21:02.905Z,2.37
2018-12-30T09:23:07.470Z,1.63
2018-12-30T09:25:12.214Z,1.80
2018-12-30T09:27:18.899Z,2.45
2018-12-30T09:29:23.187Z,2.53
2018-12-30T09:31:27.773Z,2.90
2018-12-30T09:33:32.151Z,1.80
2018-12-30T09:35:37.150Z,2.60
2018-12-30T09:37:41.580Z,2.20
2018-12-30T09:39:46.023Z,2.27
2018-12-30T09:41:50.504Z,2.58
2018-12-30T09:43:58.607Z,2.57
2018-12-30T09:46:22.667Z,2.83
2018-12-30T09:48:33.585Z,2.60
2018-12-30T09:50:33.279Z,2.20
2018-12-30T09:52:37.681Z,1.93
2018-12-30T09:54:41.891Z,2.25
2018-12-30T09:56:46.751Z,2.27
2018-12-30T09:58:50.642Z,2.00
2018-12-30T10:00:55.498Z,2.00
2018-12-30T10:03:00.260Z,2.17
2018-12-30T10:05:05.372Z,2.10
2018-12-30T10:07:10.088Z,2.17
2018-12-30T10:09:14.695Z,2.47
2018-12-30T10:11:19.800Z,2.30
2018-12-30T10:13:24.472Z,2.30
2018-12-30T10:15:29.174Z,2.70
2018-12-30T10:17:34.471Z,3.00
2018-12-30T10:19:38.606Z,1.93
2018-12-30T10:21:42.983Z,2.67
2018-12-30T10:23:52.886Z,2.37
2018-12-30T10:25:53.665Z,2.20
2018-12-30T10:27:58.419Z,2.60
2018-12-30T10:30:02.635Z,2.87
2018-12-30T10:32:07.381Z,2.47
2018-12-30T10:34:11.647Z,2.13
2018-12-30T10:36:16.182Z,2.93
2018-12-30T10:38:20.704Z,2.50
2018-12-30T10:40:25.812Z,2.30
2018-12-30T10:42:30.536Z,2.23
2018-12-30T10:44:35.619Z,2.00
2018-12-30T10:46:40.619Z,2.07
2018-12-30T10:48:45.701Z,2.12
2018-12-30T10:50:50.865Z,2.00
2018-12-30T10:52:55.649Z,2.15
2018-12-30T10:55:00.389Z,2.00
2018-12-30T10:57:06.058Z,2.40
2018-12-30T10:59:10.177Z,2.30
2018-12-30T11:01:14.645Z,1.93
2018-12-30T11:03:19.255Z,2.40
2018-12-30T11:05:23.523Z,2.60
2018-12-30T11:07:28.216Z,1.70
2018-12-30T11:09:32.400Z,2.80
2018-12-30T11:11:36.919Z,2.60
2018-12-30T11:13:41.113Z,2.70
2018-12-30T11:15:45.118Z,3.17
2018-12-30T11:17:49.674Z,3.00
2018-12-30T11:19:53.821Z,2.57
2018-12-30T11:21:58.760Z,2.05
2018-12-30T11:24:08.473Z,2.80
2018-12-30T11:26:10.068Z,2.30
2018-12-30T11:28:14.370Z,2.50
2018-12-30T11:30:19.454Z,2.40
2018-12-30T11:32:24.222Z,2.97
2018-12-30T11:34:29.431Z,2.15
2018-12-30T11:36:34.345Z,2.58
2018-12-30T11:38:38.435Z,2.20
2018-12-30T11:40:43.079Z,2.77
2018-12-30T11:42:47.779Z,3.50
2018-12-30T11:44:52.017Z,2.37
2018-12-30T11:46:56.220Z,2.83
2018-12-30T11:49:00.447Z,2.60
2018-12-30T11:51:05.031Z,2.60
2018-12-30T11:53:09.903Z,2.33
2018-12-30T11:55:14.030Z,2.03
2018-12-30T11:57:18.857Z,2.10
2018-12-30T11:59:23.361Z,2.07
2018-12-30T12:01:28.622Z,2.70
2018-12-30T12:03:33.250Z,2.50
2018-12-30T12:05:38.427Z,2.73
2018-12-30T12:07:43.459Z,2.47
2018-12-30T12:09:48.760Z,3.70
2018-12-30T12:11:53.239Z,2.50
2018-12-30T12:13:57.842Z,2.73
2018-12-30T12:16:02.083Z,2.17
2018-12-30T12:18:07.485Z,1.90
2018-12-30T12:20:12.019Z,2.50
2018-12-30T12:22:16.024Z,2.60
2018-12-30T12:24:24.305Z,3.20
2018-12-30T12:26:27.136Z,2.30
2018-12-30T12:28:31.372Z,2.60
2018-12-30T12:30:36.631Z,2.37
2018-12-30T12:32:40.864Z,2.90
2018-12-30T12:34:45.603Z,2.80
2018-12-30T12:36:50.707Z,2.50
2018-12-30T12:38:55.350Z,3.20
2018-12-30T12:40:59.965Z,2.95
2018-12-30T12:43:04.119Z,2.30
2018-12-30T12:45:08.700Z,2.60
2018-12-30T12:47:15.669Z,2.08
2018-12-30T12:49:20.276Z,2.17
2018-12-30T12:51:24.645Z,2.20
2018-12-30T12:53:28.935Z,2.30
2018-12-30T12:55:33.092Z,2.13
2018-12-30T12:57:57.139Z,1.70
2018-12-30T13:00:20.387Z,1.80
2018-12-30T13:10:28.139Z,1.90
2018-12-30T13:12:51.466Z,1.70
2018-12-30T13:15:15.311Z,2.37
2018-12-30T13:17:38.831Z,2.00
2018-12-30T13:20:02.224Z,1.93
2018-12-30T13:22:25.547Z,1.80
2018-12-30T13:24:49.366Z,2.10
2018-12-30T13:27:13.191Z,2.87
2018-12-30T13:37:17.621Z,1.93
2018-12-30T13:39:33.776Z,2.00
2018-12-30T13:41:50.196Z,2.70
2018-12-30T13:44:06.107Z,2.10
2018-12-30T13:46:22.539Z,2.20
2018-12-30T13:48:38.834Z,2.23
2018-12-30T13:50:54.732Z,2.37
2018-12-30T13:53:11.164Z,1.90
2018-12-30T13:55:27.560Z,1.90
2018-12-30T13:57:43.189Z,3.07
2018-12-30T14:00:00.377Z,2.20
2018-12-30T14:02:16.952Z,1.80
2018-12-30T14:04:33.368Z,1.90
2018-12-30T14:06:48.839Z,1.90
2018-12-30T14:09:06.441Z,1.80
2018-12-30T14:11:24.675Z,2.00
2018-12-30T14:13:39.184Z,2.00
2018-12-30T14:18:31.707Z,1.70
2018-12-30T14:20:48.104Z,2.40
2018-12-30T14:23:05.036Z,2.07
2018-12-30T14:25:20.824Z,2.77
2018-12-30T14:27:37.315Z,2.65
2018-12-30T14:29:53.699Z,3.60
2018-12-30T14:32:09.064Z,2.10
2018-12-30T14:34:25.655Z,2.40
2018-12-30T14:36:41.719Z,2.60
2018-12-30T14:38:56.268Z,2.07
2018-12-30T14:41:19.367Z,1.90
2018-12-30T14:44:02.084Z,2.40
2018-12-30T14:46:33.616Z,2.47
2018-12-30T14:59:13.073Z,2.50
2018-12-30T15:01:36.379Z,2.53
2018-12-30T15:03:59.657Z,1.60
2018-12-30T15:06:22.718Z,2.07
2018-12-30T15:09:05.648Z,2.30
2018-12-30T15:11:29.701Z,2.57
2018-12-30T15:13:53.039Z,2.80
2018-12-30T15:16:16.642Z,2.50
2018-12-30T15:18:40.494Z,2.15
2018-12-30T15:23:35.716Z,2.70
2018-12-30T15:25:59.222Z,1.93
2018-12-30T15:30:56.212Z,2.80
2018-12-30T15:33:19.837Z,2.47
2018-12-30T15:38:27.561Z,2.60
2018-12-30T15:40:43.371Z,2.30
2018-12-30T15:42:59.404Z,3.30
2018-12-30T15:45:15.795Z,2.50
2018-12-30T15:47:31.551Z,2.30
2018-12-30T15:49:48.028Z,2.50
2018-12-30T15:52:04.337Z,3.23
2018-12-30T15:54:20.885Z,2.30
2018-12-30T15:56:37.316Z,2.40
2018-12-30T15:58:53.367Z,3.97
2018-12-30T16:01:09.711Z,2.90
2018-12-30T16:03:24.746Z,3.53
2018-12-30T16:05:48.267Z,3.27
2018-12-30T16:10:42.819Z,3.00
2018-12-30T16:13:06.154Z,3.57
2018-12-30T16:15:29.726Z,3.10
2018-12-30T16:17:53.091Z,2.80
2018-12-30T16:20:16.936Z,3.67
2018-12-30T16:22:33.062Z,3.60
2018-12-30T16:24:49.499Z,3.62
2018-12-30T16:27:06.354Z,4.22
2018-12-30T16:29:23.302Z,3.50
2018-12-30T16:31:39.264Z,3.60
2018-12-30T16:33:54.083Z,3.27
2018-12-30T16:36:18.127Z,2.90
2018-12-30T16:38:34.567Z,3.30
2018-12-30T16:40:50.433Z,3.67
2018-12-30T16:43:06.787Z,3.67
2018-12-30T16:45:22.344Z,3.87
2018-12-30T16:47:42.071Z,3.70
2018-12-30T16:49:57.126Z,3.77
2018-12-30T16:52:13.806Z,4.17
2018-12-30T16:54:30.050Z,3.40
2018-12-30T16:56:46.164Z,3.77
2018-12-30T16:59:03.278Z,3.30
2018-12-30T17:01:18.995Z,3.95
2018-12-30T17:03:35.283Z,3.70
2018-12-30T17:05:51.938Z,3.77
2018-12-30T17:08:07.779Z,3.50
2018-12-30T17:10:24.472Z,3.40
2018-12-30T17:12:40.429Z,4.20
2018-12-30T17:14:57.134Z,3.73
2018-12-30T17:17:13.425Z,3.22
2018-12-30T17:19:29.884Z,3.30
2018-12-30T17:21:46.087Z,3.43
2018-12-30T17:24:02.179Z,4.70
2018-12-30T17:26:18.159Z,4.40
2018-12-30T17:28:34.343Z,3.30
2018-12-30T17:30:50.336Z,3.70
2018-12-30T17:33:06.646Z,3.47
2018-12-30T17:35:22.705Z,4.00
2018-12-30T17:37:38.433Z,4.80
2018-12-30T17:39:54.391Z,4.17
2018-12-30T17:42:10.000Z,3.77
2018-12-30T17:44:25.907Z,4.47
2018-12-30T17:46:41.724Z,4.60
2018-12-30T17:48:58.708Z,4.43
2018-12-30T17:51:14.900Z,4.58
2018-12-30T17:53:31.588Z,4.47
2018-12-30T17:55:50.858Z,5.17
2018-12-30T17:58:06.279Z,5.00
2018-12-30T18:00:22.318Z,5.03
2018-12-30T18:02:39.326Z,5.10
2018-12-30T18:04:55.549Z,4.30
2018-12-30T18:07:11.656Z,4.05
2018-12-30T18:09:28.314Z,4.53
2018-12-30T18:11:44.168Z,4.30
2018-12-30T18:13:58.646Z,4.45
2018-12-30T18:16:23.042Z,4.70
2018-12-30T18:18:46.706Z,4.93
2018-12-30T18:21:10.206Z,4.83
2018-12-30T18:23:33.433Z,3.97
2018-12-30T18:25:58.785Z,4.10
2018-12-30T18:28:21.487Z,4.20
2018-12-30T18:33:06.523Z,4.90
2018-12-30T18:35:23.220Z,4.90
2018-12-30T18:37:40.392Z,4.70
2018-12-30T18:39:56.575Z,5.37
2018-12-30T18:42:12.962Z,3.93
2018-12-30T18:44:29.450Z,4.40
2018-12-30T18:46:45.664Z,4.43
2018-12-30T18:49:01.359Z,4.67
2018-12-30T18:51:18.689Z,5.30
2018-12-30T18:53:34.870Z,5.90
2018-12-30T18:55:50.772Z,5.77
2018-12-30T18:58:06.894Z,5.33
2018-12-30T19:00:22.746Z,5.30
2018-12-30T19:02:38.903Z,5.28
2018-12-30T19:04:54.563Z,5.50
2018-12-30T19:07:10.806Z,5.43
2018-12-30T19:09:26.842Z,7.28
2018-12-30T19:11:43.545Z,5.70
2018-12-30T19:13:59.670Z,4.93
2018-12-30T19:16:14.151Z,6.27
2018-12-30T19:21:06.803Z,6.27
2018-12-30T19:23:31.176Z,5.23
2018-12-30T19:28:23.629Z,5.70
2018-12-30T19:30:46.876Z,5.27
2018-12-30T19:35:40.081Z,6.37
2018-12-30T19:38:03.296Z,5.80
2018-12-30T19:40:26.366Z,6.93
2018-12-30T19:42:42.700Z,5.50
2018-12-30T19:44:59.340Z,6.30
2018-12-30T19:47:15.339Z,6.80
2018-12-30T19:49:31.765Z,4.90
2018-12-30T19:51:48.487Z,6.50
2018-12-30T19:54:04.296Z,6.40
2018-12-30T19:56:21.983Z,6.40
2018-12-30T19:58:38.636Z,6.10
2018-12-30T20:00:54.672Z,6.60
2018-12-30T20:03:10.676Z,6.93
2018-12-30T20:05:26.703Z,5.60
2018-12-30T20:07:43.160Z,5.10
2018-12-30T20:09:59.163Z,5.10
2018-12-30T20:12:15.024Z,5.73
2018-12-30T20:14:31.923Z,4.47
2018-12-30T20:16:48.304Z,4.90
2018-12-30T20:19:04.863Z,4.60
2018-12-30T20:21:22.443Z,4.60
2018-12-30T20:23:39.088Z,4.27
2018-12-30T20:25:55.080Z,3.85
2018-12-30T20:28:11.001Z,4.73
2018-12-30T20:30:26.848Z,4.40
2018-12-30T20:32:42.907Z,4.00
2018-12-30T20:34:58.728Z,4.57
2018-12-30T20:37:14.826Z,4.80
2018-12-30T20:39:31.368Z,5.53
2018-12-30T20:41:47.251Z,4.90
2018-12-30T20:44:03.748Z,4.42
2018-12-30T20:46:19.783Z,4.30
2018-12-30T20:48:36.316Z,5.27
2018-12-30T20:50:52.824Z,4.72
2018-12-30T20:53:09.956Z,5.50
2018-12-30T20:55:26.182Z,5.47
2018-12-30T20:57:42.191Z,5.30
2018-12-30T20:59:58.261Z,6.40
2018-12-30T21:02:14.429Z,5.50
2018-12-30T21:04:30.943Z,6.00
2018-12-30T21:06:46.386Z,5.97
2018-12-30T21:09:02.512Z,5.22
2018-12-30T21:11:19.139Z,5.63
2018-12-30T21:13:36.127Z,5.17
2018-12-30T21:15:52.802Z,5.30
2018-12-30T21:18:10.294Z,4.40
2018-12-30T21:20:26.983Z,4.40
2018-12-30T21:22:43.120Z,4.20
2018-12-30T21:25:00.240Z,5.10
2018-12-30T21:27:16.212Z,5.67
2018-12-30T21:29:31.880Z,5.17
2018-12-30T21:31:48.864Z,6.50
2018-12-30T21:34:05.344Z,4.93
2018-12-30T21:36:21.700Z,5.80
2018-12-30T21:38:37.244Z,6.53
2018-12-30T21:40:53.423Z,5.72
2018-12-30T21:43:09.564Z,6.10
2018-12-30T21:45:26.227Z,5.67
2018-12-30T21:47:41.648Z,6.13
2018-12-30T21:49:57.672Z,6.50
2018-12-30T21:52:13.891Z,6.53
2018-12-30T21:54:30.190Z,6.57
2018-12-30T21:56:54.577Z,6.27
2018-12-30T21:59:04.801Z,7.70
2018-12-30T22:01:21.710Z,6.23
2018-12-30T22:03:37.851Z,7.10
2018-12-30T22:05:53.675Z,6.40
2018-12-30T22:08:09.794Z,6.80
2018-12-30T22:10:25.588Z,6.65
2018-12-30T22:12:41.288Z,6.57
2018-12-30T22:14:57.752Z,7.40
2018-12-30T22:17:14.395Z,5.63
2018-12-30T22:19:30.244Z,6.70
2018-12-30T22:21:46.801Z,6.80
2018-12-30T22:24:02.531Z,6.10
2018-12-30T22:26:18.227Z,6.20
2018-12-30T22:28:34.381Z,6.47
2018-12-30T22:30:51.343Z,5.90
2018-12-30T22:33:07.711Z,6.70
2018-12-30T22:35:23.604Z,7.27
2018-12-30T22:37:39.922Z,6.57
2018-12-30T22:39:56.098Z,6.70
2018-12-30T22:42:12.929Z,6.20
2018-12-30T22:44:29.507Z,6.57
2018-12-30T22:46:45.543Z,6.83
2018-12-30T22:49:01.151Z,6.30
2018-12-30T22:51:17.509Z,6.80
2018-12-30T22:53:33.523Z,6.80
2018-12-30T22:55:49.448Z,6.30
2018-12-30T22:58:05.756Z,5.80
2018-12-30T23:00:41.317Z,5.87
2018-12-30T23:02:57.811Z,5.57
2018-12-30T23:05:14.264Z,5.40
2018-12-30T23:07:30.259Z,6.70
2018-12-30T23:09:46.963Z,5.90
2018-12-30T23:12:03.049Z,6.20
2018-12-30T23:14:19.109Z,6.50
2018-12-30T23:16:35.251Z,6.03
2018-12-30T23:18:51.327Z,5.90
2018-12-30T23:21:07.531Z,5.80
2018-12-30T23:23:23.812Z,5.70
2018-12-30T23:25:40.075Z,6.50
2018-12-30T23:27:56.257Z,5.55
2018-12-30T23:30:12.911Z,6.43
2018-12-30T23:32:28.591Z,6.30
2018-12-30T23:34:45.007Z,5.60
2018-12-30T23:37:01.302Z,6.57
2018-12-30T23:39:16.864Z,6.40
2018-12-30T23:41:33.435Z,6.10
2018-12-30T23:43:49.262Z,6.30
2018-12-30T23:46:05.467Z,7.10
2018-12-30T23:48:21.924Z,6.40
2018-12-30T23:50:37.713Z,6.37
2018-12-30T23:52:54.156Z,6.90
2018-12-30T23:55:10.769Z,6.23
2018-12-30T23:57:26.385Z,6.30
2018-12-30T23:59:42.097Z,6.90
